sensor_id;sensor_type;location;lat;lon;timestamp;P1;durP1;ratioP1;P2;durP2;ratioP2
21297;SDS011;10808;48.010;11.326;2024-02-23T00:00:45;0.40;;;0.40;;
21297;SDS011;10808;48.010;11.326;2024-02-23T00:03:11;1.08;;;0.60;;
21297;SDS011;10808;48.010;11.326;2024-02-23T00:05:37;0.95;;;0.40;;
21297;SDS011;10808;48.010;11.326;2024-02-23T00:08:03;1.40;;;0.50;;
21297;SDS011;10808;48.010;11.326;2024-02-23T00:10:29;0.50;;;0.40;;
21297;SDS011;10808;48.010;11.326;2024-02-23T00:12:55;1.02;;;0.40;;
21297;SDS011;10808;48.010;11.326;2024-02-23T00:15:21;1.15;;;0.68;;
21297;SDS011;10808;48.010;11.326;2024-02-23T00:17:49;0.43;;;0.40;;
21297;SDS011;10808;48.010;11.326;2024-02-23T00:20:16;0.82;;;0.40;;
21297;SDS011;10808;48.010;11.326;2024-02-23T00:22:42;0.20;;;0.20;;
21297;SDS011;10808;48.010;11.326;2024-02-23T00:25:08;0.45;;;0.30;;
21297;SDS011;10808;48.010;11.326;2024-02-23T00:27:34;0.30;;;0.30;;
21297;SDS011;10808;48.010;11.326;2024-02-23T00:30:00;0.50;;;0.50;;
21297;SDS011;10808;48.010;11.326;2024-02-23T00:32:26;0.40;;;0.40;;
21297;SDS011;10808;48.010;11.326;2024-02-23T00:34:52;0.28;;;0.28;;
21297;SDS011;10808;48.010;11.326;2024-02-23T00:37:18;0.45;;;0.30;;
21297;SDS011;10808;48.010;11.326;2024-02-23T00:39:44;0.40;;;0.30;;
21297;SDS011;10808;48.010;11.326;2024-02-23T00:42:10;0.43;;;0.30;;
21297;SDS011;10808;48.010;11.326;2024-02-23T00:44:37;0.40;;;0.40;;
21297;SDS011;10808;48.010;11.326;2024-02-23T00:47:03;0.70;;;0.30;;
21297;SDS011;10808;48.010;11.326;2024-02-23T00:49:29;0.40;;;0.30;;
21297;SDS011;10808;48.010;11.326;2024-02-23T00:51:56;0.70;;;0.30;;
21297;SDS011;10808;48.010;11.326;2024-02-23T00:54:22;0.40;;;0.40;;
21297;SDS011;10808;48.010;11.326;2024-02-23T00:56:48;0.20;;;0.20;;
21297;SDS011;10808;48.010;11.326;2024-02-23T00:59:14;0.40;;;0.22;;
21297;SDS011;10808;48.010;11.326;2024-02-23T01:01:40;0.20;;;0.20;;
21297;SDS011;10808;48.010;11.326;2024-02-23T01:04:06;0.70;;;0.40;;
21297;SDS011;10808;48.010;11.326;2024-02-23T01:06:32;1.20;;;0.30;;
21297;SDS011;10808;48.010;11.326;2024-02-23T01:08:58;0.60;;;0.40;;
21297;SDS011;10808;48.010;11.326;2024-02-23T01:11:25;0.35;;;0.30;;
21297;SDS011;10808;48.010;11.326;2024-02-23T01:13:51;0.30;;;0.30;;
21297;SDS011;10808;48.010;11.326;2024-02-23T01:16:17;0.73;;;0.40;;
21297;SDS011;10808;48.010;11.326;2024-02-23T01:18:43;0.70;;;0.43;;
21297;SDS011;10808;48.010;11.326;2024-02-23T01:21:09;0.40;;;0.30;;
21297;SDS011;10808;48.010;11.326;2024-02-23T01:23:35;0.60;;;0.40;;
21297;SDS011;10808;48.010;11.326;2024-02-23T01:26:01;0.50;;;0.50;;
21297;SDS011;10808;48.010;11.326;2024-02-23T01:28:28;1.08;;;0.50;;
21297;SDS011;10808;48.010;11.326;2024-02-23T01:30:54;0.40;;;0.40;;
21297;SDS011;10808;48.010;11.326;2024-02-23T01:33:20;0.95;;;0.50;;
21297;SDS011;10808;48.010;11.326;2024-02-23T01:35:46;1.15;;;0.40;;
21297;SDS011;10808;48.010;11.326;2024-02-23T01:38:12;0.52;;;0.38;;
21297;SDS011;10808;48.010;11.326;2024-02-23T01:40:44;1.50;;;0.40;;
21297;SDS011;10808;48.010;11.326;2024-02-23T01:43:10;0.43;;;0.43;;
21297;SDS011;10808;48.010;11.326;2024-02-23T01:45:36;0.88;;;0.50;;
21297;SDS011;10808;48.010;11.326;2024-02-23T01:48:02;0.32;;;0.32;;
21297;SDS011;10808;48.010;11.326;2024-02-23T01:50:29;0.30;;;0.30;;
21297;SDS011;10808;48.010;11.326;2024-02-23T01:52:57;0.40;;;0.30;;
21297;SDS011;10808;48.010;11.326;2024-02-23T01:55:26;0.30;;;0.30;;
21297;SDS011;10808;48.010;11.326;2024-02-23T01:57:53;0.30;;;0.30;;
21297;SDS011;10808;48.010;11.326;2024-02-23T02:00:20;0.30;;;0.30;;
21297;SDS011;10808;48.010;11.326;2024-02-23T02:02:49;0.20;;;0.20;;
21297;SDS011;10808;48.010;11.326;2024-02-23T02:05:15;0.28;;;0.20;;
21297;SDS011;10808;48.010;11.326;2024-02-23T02:07:41;0.80;;;0.40;;
21297;SDS011;10808;48.010;11.326;2024-02-23T02:10:08;1.10;;;0.20;;
21297;SDS011;10808;48.010;11.326;2024-02-23T02:12:35;0.20;;;0.20;;
21297;SDS011;10808;48.010;11.326;2024-02-23T02:15:01;0.25;;;0.25;;
21297;SDS011;10808;48.010;11.326;2024-02-23T02:17:28;0.70;;;0.28;;
21297;SDS011;10808;48.010;11.326;2024-02-23T02:19:54;0.30;;;0.30;;
21297;SDS011;10808;48.010;11.326;2024-02-23T02:22:20;0.20;;;0.20;;
21297;SDS011;10808;48.010;11.326;2024-02-23T02:24:46;0.20;;;0.20;;
21297;SDS011;10808;48.010;11.326;2024-02-23T02:27:14;0.50;;;0.20;;
21297;SDS011;10808;48.010;11.326;2024-02-23T02:29:40;0.40;;;0.20;;
21297;SDS011;10808;48.010;11.326;2024-02-23T02:32:06;0.20;;;0.20;;
21297;SDS011;10808;48.010;11.326;2024-02-23T02:34:32;0.20;;;0.20;;
21297;SDS011;10808;48.010;11.326;2024-02-23T02:37:00;0.22;;;0.22;;
21297;SDS011;10808;48.010;11.326;2024-02-23T02:39:26;0.20;;;0.20;;
21297;SDS011;10808;48.010;11.326;2024-02-23T02:41:52;0.20;;;0.20;;
21297;SDS011;10808;48.010;11.326;2024-02-23T02:44:18;0.60;;;0.30;;
21297;SDS011;10808;48.010;11.326;2024-02-23T02:46:44;0.20;;;0.20;;
21297;SDS011;10808;48.010;11.326;2024-02-23T02:49:11;0.50;;;0.20;;
21297;SDS011;10808;48.010;11.326;2024-02-23T02:51:37;0.30;;;0.20;;
21297;SDS011;10808;48.010;11.326;2024-02-23T02:54:04;0.20;;;0.20;;
21297;SDS011;10808;48.010;11.326;2024-02-23T02:56:31;0.35;;;0.30;;
21297;SDS011;10808;48.010;11.326;2024-02-23T02:58:57;0.20;;;0.20;;
21297;SDS011;10808;48.010;11.326;2024-02-23T03:01:23;0.28;;;0.28;;
21297;SDS011;10808;48.010;11.326;2024-02-23T03:03:49;0.38;;;0.30;;
21297;SDS011;10808;48.010;11.326;2024-02-23T03:06:15;0.30;;;0.30;;
21297;SDS011;10808;48.010;11.326;2024-02-23T03:08:42;0.50;;;0.20;;
21297;SDS011;10808;48.010;11.326;2024-02-23T03:11:10;0.30;;;0.20;;
21297;SDS011;10808;48.010;11.326;2024-02-23T03:13:36;0.23;;;0.20;;
21297;SDS011;10808;48.010;11.326;2024-02-23T03:16:02;0.20;;;0.20;;
21297;SDS011;10808;48.010;11.326;2024-02-23T03:18:28;0.45;;;0.30;;
21297;SDS011;10808;48.010;11.326;2024-02-23T03:20:54;0.20;;;0.20;;
21297;SDS011;10808;48.010;11.326;2024-02-23T03:23:20;0.50;;;0.40;;
21297;SDS011;10808;48.010;11.326;2024-02-23T03:25:46;0.30;;;0.30;;
21297;SDS011;10808;48.010;11.326;2024-02-23T03:28:12;0.50;;;0.27;;
21297;SDS011;10808;48.010;11.326;2024-02-23T03:30:38;1.08;;;0.30;;
21297;SDS011;10808;48.010;11.326;2024-02-23T03:33:04;0.22;;;0.22;;
21297;SDS011;10808;48.010;11.326;2024-02-23T03:35:30;0.30;;;0.30;;
21297;SDS011;10808;48.010;11.326;2024-02-23T03:37:56;0.30;;;0.30;;
21297;SDS011;10808;48.010;11.326;2024-02-23T03:40:22;0.30;;;0.30;;
21297;SDS011;10808;48.010;11.326;2024-02-23T03:42:48;0.50;;;0.30;;
21297;SDS011;10808;48.010;11.326;2024-02-23T03:45:14;0.75;;;0.30;;
21297;SDS011;10808;48.010;11.326;2024-02-23T03:47:40;0.47;;;0.30;;
21297;SDS011;10808;48.010;11.326;2024-02-23T03:50:07;0.40;;;0.30;;
21297;SDS011;10808;48.010;11.326;2024-02-23T03:52:33;0.20;;;0.20;;
21297;SDS011;10808;48.010;11.326;2024-02-23T03:54:59;0.60;;;0.30;;
21297;SDS011;10808;48.010;11.326;2024-02-23T03:57:25;0.20;;;0.20;;
21297;SDS011;10808;48.010;11.326;2024-02-23T03:59:52;1.20;;;0.30;;
21297;SDS011;10808;48.010;11.326;2024-02-23T04:02:19;0.30;;;0.30;;
21297;SDS011;10808;48.010;11.326;2024-02-23T04:04:45;0.40;;;0.30;;
21297;SDS011;10808;48.010;11.326;2024-02-23T04:07:11;0.68;;;0.35;;
21297;SDS011;10808;48.010;11.326;2024-02-23T04:09:37;0.95;;;0.40;;
21297;SDS011;10808;48.010;11.326;2024-02-23T04:12:03;0.30;;;0.30;;
21297;SDS011;10808;48.010;11.326;2024-02-23T04:14:29;0.57;;;0.40;;
21297;SDS011;10808;48.010;11.326;2024-02-23T04:16:55;0.32;;;0.32;;
21297;SDS011;10808;48.010;11.326;2024-02-23T04:19:21;0.38;;;0.30;;
21297;SDS011;10808;48.010;11.326;2024-02-23T04:21:47;0.82;;;0.30;;
21297;SDS011;10808;48.010;11.326;2024-02-23T04:24:13;0.30;;;0.30;;
21297;SDS011;10808;48.010;11.326;2024-02-23T04:26:39;0.50;;;0.20;;
21297;SDS011;10808;48.010;11.326;2024-02-23T04:29:05;0.45;;;0.30;;
21297;SDS011;10808;48.010;11.326;2024-02-23T04:31:31;0.30;;;0.30;;
21297;SDS011;10808;48.010;11.326;2024-02-23T04:33:57;0.90;;;0.50;;
21297;SDS011;10808;48.010;11.326;2024-02-23T04:36:23;0.40;;;0.35;;
21297;SDS011;10808;48.010;11.326;2024-02-23T04:38:49;0.30;;;0.30;;
21297;SDS011;10808;48.010;11.326;2024-02-23T04:41:18;0.65;;;0.30;;
21297;SDS011;10808;48.010;11.326;2024-02-23T04:43:46;0.60;;;0.30;;
21297;SDS011;10808;48.010;11.326;2024-02-23T04:46:12;0.30;;;0.30;;
21297;SDS011;10808;48.010;11.326;2024-02-23T04:48:38;1.25;;;0.30;;
21297;SDS011;10808;48.010;11.326;2024-02-23T04:51:05;0.30;;;0.30;;
21297;SDS011;10808;48.010;11.326;2024-02-23T04:53:31;0.57;;;0.47;;
21297;SDS011;10808;48.010;11.326;2024-02-23T04:56:02;0.30;;;0.30;;
21297;SDS011;10808;48.010;11.326;2024-02-23T04:58:28;0.50;;;0.35;;
21297;SDS011;10808;48.010;11.326;2024-02-23T05:00:54;0.60;;;0.20;;
21297;SDS011;10808;48.010;11.326;2024-02-23T05:03:21;0.38;;;0.30;;
21297;SDS011;10808;48.010;11.326;2024-02-23T05:05:47;1.20;;;0.50;;
21297;SDS011;10808;48.010;11.326;2024-02-23T05:08:13;0.30;;;0.30;;
21297;SDS011;10808;48.010;11.326;2024-02-23T05:10:39;0.60;;;0.30;;
21297;SDS011;10808;48.010;11.326;2024-02-23T05:13:05;0.40;;;0.40;;
21297;SDS011;10808;48.010;11.326;2024-02-23T05:15:31;0.30;;;0.30;;
21297;SDS011;10808;48.010;11.326;2024-02-23T05:17:57;0.20;;;0.20;;
21297;SDS011;10808;48.010;11.326;2024-02-23T05:20:23;0.60;;;0.30;;
21297;SDS011;10808;48.010;11.326;2024-02-23T05:22:49;0.40;;;0.33;;
21297;SDS011;10808;48.010;11.326;2024-02-23T05:25:15;0.30;;;0.30;;
21297;SDS011;10808;48.010;11.326;2024-02-23T05:27:41;0.98;;;0.50;;
21297;SDS011;10808;48.010;11.326;2024-02-23T05:30:07;0.95;;;0.35;;
21297;SDS011;10808;48.010;11.326;2024-02-23T05:32:34;0.30;;;0.30;;
21297;SDS011;10808;48.010;11.326;2024-02-23T05:35:00;0.65;;;0.25;;
21297;SDS011;10808;48.010;11.326;2024-02-23T05:37:27;0.20;;;0.20;;
21297;SDS011;10808;48.010;11.326;2024-02-23T05:39:53;0.60;;;0.40;;
21297;SDS011;10808;48.010;11.326;2024-02-23T05:42:19;0.98;;;0.30;;
21297;SDS011;10808;48.010;11.326;2024-02-23T05:44:45;0.27;;;0.27;;
21297;SDS011;10808;48.010;11.326;2024-02-23T05:47:14;0.53;;;0.30;;
21297;SDS011;10808;48.010;11.326;2024-02-23T05:49:40;0.30;;;0.30;;
21297;SDS011;10808;48.010;11.326;2024-02-23T05:52:06;0.20;;;0.20;;
21297;SDS011;10808;48.010;11.326;2024-02-23T05:54:32;0.60;;;0.33;;
21297;SDS011;10808;48.010;11.326;2024-02-23T05:56:58;0.55;;;0.30;;
21297;SDS011;10808;48.010;11.326;2024-02-23T05:59:24;1.20;;;0.40;;
21297;SDS011;10808;48.010;11.326;2024-02-23T06:01:50;0.60;;;0.30;;
21297;SDS011;10808;48.010;11.326;2024-02-23T06:04:18;0.68;;;0.30;;
21297;SDS011;10808;48.010;11.326;2024-02-23T06:06:44;0.63;;;0.35;;
21297;SDS011;10808;48.010;11.326;2024-02-23T06:09:10;1.20;;;0.40;;
21297;SDS011;10808;48.010;11.326;2024-02-23T06:11:36;2.28;;;1.42;;
21297;SDS011;10808;48.010;11.326;2024-02-23T06:14:02;5.00;;;3.35;;
21297;SDS011;10808;48.010;11.326;2024-02-23T06:16:28;2.00;;;0.50;;
21297;SDS011;10808;48.010;11.326;2024-02-23T06:18:54;1.88;;;0.60;;
21297;SDS011;10808;48.010;11.326;2024-02-23T06:21:21;1.88;;;1.25;;
21297;SDS011;10808;48.010;11.326;2024-02-23T06:23:47;9.27;;;5.63;;
21297;SDS011;10808;48.010;11.326;2024-02-23T06:26:13;31.38;;;17.52;;
21297;SDS011;10808;48.010;11.326;2024-02-23T06:28:39;21.65;;;12.15;;
21297;SDS011;10808;48.010;11.326;2024-02-23T06:31:08;11.88;;;6.82;;
21297;SDS011;10808;48.010;11.326;2024-02-23T06:33:35;16.47;;;11.00;;
21297;SDS011;10808;48.010;11.326;2024-02-23T06:36:01;3.47;;;1.65;;
21297;SDS011;10808;48.010;11.326;2024-02-23T06:38:28;1.10;;;1.00;;
21297;SDS011;10808;48.010;11.326;2024-02-23T06:40:55;3.25;;;1.08;;
21297;SDS011;10808;48.010;11.326;2024-02-23T06:43:21;1.50;;;0.73;;
21297;SDS011;10808;48.010;11.326;2024-02-23T06:45:48;2.75;;;0.82;;
21297;SDS011;10808;48.010;11.326;2024-02-23T06:48:14;1.27;;;0.60;;
21297;SDS011;10808;48.010;11.326;2024-02-23T06:50:40;2.38;;;0.55;;
21297;SDS011;10808;48.010;11.326;2024-02-23T06:53:06;3.23;;;0.90;;
21297;SDS011;10808;48.010;11.326;2024-02-23T06:55:33;1.60;;;0.90;;
21297;SDS011;10808;48.010;11.326;2024-02-23T06:58:00;1.90;;;1.17;;
21297;SDS011;10808;48.010;11.326;2024-02-23T07:00:26;1.30;;;0.80;;
21297;SDS011;10808;48.010;11.326;2024-02-23T07:02:52;2.15;;;0.90;;
21297;SDS011;10808;48.010;11.326;2024-02-23T07:05:18;1.73;;;0.70;;
21297;SDS011;10808;48.010;11.326;2024-02-23T07:07:44;2.45;;;0.80;;
21297;SDS011;10808;48.010;11.326;2024-02-23T07:10:10;1.45;;;0.60;;
21297;SDS011;10808;48.010;11.326;2024-02-23T07:12:37;2.92;;;0.80;;
21297;SDS011;10808;48.010;11.326;2024-02-23T07:15:03;1.25;;;0.50;;
21297;SDS011;10808;48.010;11.326;2024-02-23T07:17:29;2.22;;;0.60;;
21297;SDS011;10808;48.010;11.326;2024-02-23T07:19:55;0.88;;;0.50;;
21297;SDS011;10808;48.010;11.326;2024-02-23T07:22:30;2.60;;;1.03;;
21297;SDS011;10808;48.010;11.326;2024-02-23T07:24:56;2.20;;;0.57;;
21297;SDS011;10808;48.010;11.326;2024-02-23T07:27:22;2.10;;;0.73;;
21297;SDS011;10808;48.010;11.326;2024-02-23T07:29:48;2.13;;;0.70;;
21297;SDS011;10808;48.010;11.326;2024-02-23T07:32:15;3.63;;;0.75;;
21297;SDS011;10808;48.010;11.326;2024-02-23T07:34:41;2.05;;;0.85;;
21297;SDS011;10808;48.010;11.326;2024-02-23T07:37:07;1.98;;;0.80;;
21297;SDS011;10808;48.010;11.326;2024-02-23T07:39:33;2.03;;;0.90;;
21297;SDS011;10808;48.010;11.326;2024-02-23T07:41:59;2.03;;;0.80;;
21297;SDS011;10808;48.010;11.326;2024-02-23T07:44:25;2.70;;;0.95;;
21297;SDS011;10808;48.010;11.326;2024-02-23T07:46:51;1.52;;;0.52;;
21297;SDS011;10808;48.010;11.326;2024-02-23T07:49:19;2.20;;;0.70;;
21297;SDS011;10808;48.010;11.326;2024-02-23T07:51:45;1.40;;;0.70;;
21297;SDS011;10808;48.010;11.326;2024-02-23T07:54:11;1.35;;;0.60;;
21297;SDS011;10808;48.010;11.326;2024-02-23T07:56:37;1.70;;;0.68;;
21297;SDS011;10808;48.010;11.326;2024-02-23T07:59:03;1.60;;;0.63;;
21297;SDS011;10808;48.010;11.326;2024-02-23T08:01:29;2.10;;;0.70;;
21297;SDS011;10808;48.010;11.326;2024-02-23T08:03:56;1.42;;;0.60;;
21297;SDS011;10808;48.010;11.326;2024-02-23T08:06:22;1.13;;;0.70;;
21297;SDS011;10808;48.010;11.326;2024-02-23T08:08:49;6.68;;;1.17;;
21297;SDS011;10808;48.010;11.326;2024-02-23T08:11:15;2.10;;;0.90;;
21297;SDS011;10808;48.010;11.326;2024-02-23T08:13:41;2.80;;;1.00;;
21297;SDS011;10808;48.010;11.326;2024-02-23T08:16:07;2.67;;;0.90;;
21297;SDS011;10808;48.010;11.326;2024-02-23T08:18:33;1.45;;;0.75;;
21297;SDS011;10808;48.010;11.326;2024-02-23T08:20:59;1.13;;;0.73;;
21297;SDS011;10808;48.010;11.326;2024-02-23T08:23:27;1.27;;;0.60;;
21297;SDS011;10808;48.010;11.326;2024-02-23T08:25:53;2.35;;;0.75;;
21297;SDS011;10808;48.010;11.326;2024-02-23T08:28:22;2.17;;;0.80;;
21297;SDS011;10808;48.010;11.326;2024-02-23T08:30:48;2.25;;;0.80;;
21297;SDS011;10808;48.010;11.326;2024-02-23T08:33:14;1.48;;;0.80;;
21297;SDS011;10808;48.010;11.326;2024-02-23T08:35:40;1.35;;;0.80;;
21297;SDS011;10808;48.010;11.326;2024-02-23T08:38:06;2.30;;;0.80;;
21297;SDS011;10808;48.010;11.326;2024-02-23T08:40:34;1.98;;;0.75;;
21297;SDS011;10808;48.010;11.326;2024-02-23T08:43:00;1.85;;;0.60;;
21297;SDS011;10808;48.010;11.326;2024-02-23T08:45:26;3.88;;;1.30;;
21297;SDS011;10808;48.010;11.326;2024-02-23T08:47:52;1.83;;;1.10;;
21297;SDS011;10808;48.010;11.326;2024-02-23T08:50:18;2.03;;;0.90;;
21297;SDS011;10808;48.010;11.326;2024-02-23T08:52:44;1.85;;;1.05;;
21297;SDS011;10808;48.010;11.326;2024-02-23T08:55:10;1.52;;;1.02;;
21297;SDS011;10808;48.010;11.326;2024-02-23T08:57:37;2.10;;;1.13;;
21297;SDS011;10808;48.010;11.326;2024-02-23T09:00:04;2.45;;;0.98;;
21297;SDS011;10808;48.010;11.326;2024-02-23T09:02:30;1.20;;;0.90;;
21297;SDS011;10808;48.010;11.326;2024-02-23T09:04:58;1.55;;;1.00;;
21297;SDS011;10808;48.010;11.326;2024-02-23T09:07:24;2.33;;;0.75;;
21297;SDS011;10808;48.010;11.326;2024-02-23T09:09:50;1.10;;;0.80;;
21297;SDS011;10808;48.010;11.326;2024-02-23T09:12:16;1.50;;;0.90;;
21297;SDS011;10808;48.010;11.326;2024-02-23T09:14:42;1.77;;;0.88;;
21297;SDS011;10808;48.010;11.326;2024-02-23T09:17:09;1.80;;;0.90;;
21297;SDS011;10808;48.010;11.326;2024-02-23T09:19:36;2.08;;;0.73;;
21297;SDS011;10808;48.010;11.326;2024-02-23T09:22:02;2.22;;;0.80;;
21297;SDS011;10808;48.010;11.326;2024-02-23T09:24:29;2.20;;;0.80;;
21297;SDS011;10808;48.010;11.326;2024-02-23T09:26:55;1.23;;;0.80;;
21297;SDS011;10808;48.010;11.326;2024-02-23T09:29:21;0.88;;;0.60;;
21297;SDS011;10808;48.010;11.326;2024-02-23T09:31:47;1.42;;;0.60;;
21297;SDS011;10808;48.010;11.326;2024-02-23T09:36:42;2.30;;;0.80;;
21297;SDS011;10808;48.010;11.326;2024-02-23T09:39:08;0.95;;;0.70;;
21297;SDS011;10808;48.010;11.326;2024-02-23T09:41:34;1.70;;;0.90;;
21297;SDS011;10808;48.010;11.326;2024-02-23T09:44:02;1.48;;;0.80;;
21297;SDS011;10808;48.010;11.326;2024-02-23T09:46:28;2.47;;;0.80;;
21297;SDS011;10808;48.010;11.326;2024-02-23T09:48:54;1.50;;;0.70;;
21297;SDS011;10808;48.010;11.326;2024-02-23T09:51:21;1.70;;;0.70;;
21297;SDS011;10808;48.010;11.326;2024-02-23T09:53:51;0.53;;;0.50;;
21297;SDS011;10808;48.010;11.326;2024-02-23T09:56:18;1.58;;;0.60;;
21297;SDS011;10808;48.010;11.326;2024-02-23T09:58:46;1.60;;;0.43;;
21297;SDS011;10808;48.010;11.326;2024-02-23T10:01:14;1.63;;;0.50;;
21297;SDS011;10808;48.010;11.326;2024-02-23T10:03:47;0.40;;;0.40;;
21297;SDS011;10808;48.010;11.326;2024-02-23T10:06:13;1.65;;;0.50;;
21297;SDS011;10808;48.010;11.326;2024-02-23T10:08:39;2.95;;;0.70;;
21297;SDS011;10808;48.010;11.326;2024-02-23T10:11:05;2.00;;;0.60;;
21297;SDS011;10808;48.010;11.326;2024-02-23T10:13:32;3.40;;;0.90;;
21297;SDS011;10808;48.010;11.326;2024-02-23T10:15:58;1.90;;;0.70;;
21297;SDS011;10808;48.010;11.326;2024-02-23T10:18:24;1.05;;;0.80;;
21297;SDS011;10808;48.010;11.326;2024-02-23T10:20:50;1.80;;;0.90;;
21297;SDS011;10808;48.010;11.326;2024-02-23T10:23:18;1.52;;;0.57;;
21297;SDS011;10808;48.010;11.326;2024-02-23T10:25:45;1.45;;;0.60;;
21297;SDS011;10808;48.010;11.326;2024-02-23T10:28:11;2.85;;;0.80;;
21297;SDS011;10808;48.010;11.326;2024-02-23T10:30:37;0.80;;;0.80;;
21297;SDS011;10808;48.010;11.326;2024-02-23T10:33:04;1.00;;;0.57;;
21297;SDS011;10808;48.010;11.326;2024-02-23T10:35:31;1.23;;;0.60;;
21297;SDS011;10808;48.010;11.326;2024-02-23T10:38:00;1.40;;;0.50;;
21297;SDS011;10808;48.010;11.326;2024-02-23T10:40:29;1.90;;;0.70;;
21297;SDS011;10808;48.010;11.326;2024-02-23T10:43:02;0.80;;;0.50;;
21297;SDS011;10808;48.010;11.326;2024-02-23T10:45:30;0.63;;;0.50;;
21297;SDS011;10808;48.010;11.326;2024-02-23T10:47:57;0.90;;;0.50;;
21297;SDS011;10808;48.010;11.326;2024-02-23T10:50:23;0.50;;;0.50;;
21297;SDS011;10808;48.010;11.326;2024-02-23T10:52:50;1.15;;;0.40;;
21297;SDS011;10808;48.010;11.326;2024-02-23T10:55:17;0.90;;;0.40;;
21297;SDS011;10808;48.010;11.326;2024-02-23T10:57:43;0.70;;;0.50;;
21297;SDS011;10808;48.010;11.326;2024-02-23T11:00:11;1.60;;;0.50;;
21297;SDS011;10808;48.010;11.326;2024-02-23T11:02:43;0.85;;;0.50;;
21297;SDS011;10808;48.010;11.326;2024-02-23T11:05:12;1.50;;;0.60;;
21297;SDS011;10808;48.010;11.326;2024-02-23T11:07:40;1.05;;;0.60;;
21297;SDS011;10808;48.010;11.326;2024-02-23T11:10:06;0.68;;;0.50;;
21297;SDS011;10808;48.010;11.326;2024-02-23T11:12:34;2.55;;;0.50;;
21297;SDS011;10808;48.010;11.326;2024-02-23T11:15:01;0.98;;;0.40;;
21297;SDS011;10808;48.010;11.326;2024-02-23T11:17:29;1.07;;;0.50;;
21297;SDS011;10808;48.010;11.326;2024-02-23T11:19:56;0.90;;;0.50;;
21297;SDS011;10808;48.010;11.326;2024-02-23T11:22:26;0.70;;;0.50;;
21297;SDS011;10808;48.010;11.326;2024-02-23T11:24:53;1.50;;;0.47;;
21297;SDS011;10808;48.010;11.326;2024-02-23T11:27:20;1.42;;;0.55;;
21297;SDS011;10808;48.010;11.326;2024-02-23T11:29:46;0.70;;;0.70;;
21297;SDS011;10808;48.010;11.326;2024-02-23T11:32:16;2.20;;;1.20;;
21297;SDS011;10808;48.010;11.326;2024-02-23T11:34:55;1.00;;;0.70;;
21297;SDS011;10808;48.010;11.326;2024-02-23T11:37:22;26.98;;;14.40;;
21297;SDS011;10808;48.010;11.326;2024-02-23T11:39:48;23.45;;;11.70;;
21297;SDS011;10808;48.010;11.326;2024-02-23T11:42:15;9.93;;;5.15;;
21297;SDS011;10808;48.010;11.326;2024-02-23T11:44:41;1.95;;;0.88;;
21297;SDS011;10808;48.010;11.326;2024-02-23T11:47:07;0.73;;;0.60;;
21297;SDS011;10808;48.010;11.326;2024-02-23T11:49:33;1.77;;;0.60;;
21297;SDS011;10808;48.010;11.326;2024-02-23T11:52:00;0.80;;;0.40;;
21297;SDS011;10808;48.010;11.326;2024-02-23T11:54:26;1.47;;;0.50;;
21297;SDS011;10808;48.010;11.326;2024-02-23T11:56:52;1.10;;;0.40;;
21297;SDS011;10808;48.010;11.326;2024-02-23T11:59:21;0.50;;;0.50;;
21297;SDS011;10808;48.010;11.326;2024-02-23T12:01:48;1.17;;;0.40;;
21297;SDS011;10808;48.010;11.326;2024-02-23T12:04:14;1.20;;;0.73;;
21297;SDS011;10808;48.010;11.326;2024-02-23T12:06:44;1.08;;;0.40;;
21297;SDS011;10808;48.010;11.326;2024-02-23T12:09:11;0.30;;;0.30;;
21297;SDS011;10808;48.010;11.326;2024-02-23T12:11:39;0.33;;;0.33;;
21297;SDS011;10808;48.010;11.326;2024-02-23T12:14:05;0.60;;;0.47;;
21297;SDS011;10808;48.010;11.326;2024-02-23T12:16:48;2.10;;;0.50;;
21297;SDS011;10808;48.010;11.326;2024-02-23T12:19:14;1.35;;;0.50;;
21297;SDS011;10808;48.010;11.326;2024-02-23T12:21:40;1.63;;;0.52;;
21297;SDS011;10808;48.010;11.326;2024-02-23T12:24:10;0.80;;;0.40;;
21297;SDS011;10808;48.010;11.326;2024-02-23T12:26:37;2.13;;;0.60;;
21297;SDS011;10808;48.010;11.326;2024-02-23T12:29:03;0.40;;;0.40;;
21297;SDS011;10808;48.010;11.326;2024-02-23T12:31:31;1.90;;;0.45;;
21297;SDS011;10808;48.010;11.326;2024-02-23T12:33:57;1.02;;;0.40;;
21297;SDS011;10808;48.010;11.326;2024-02-23T12:36:24;1.80;;;0.50;;
21297;SDS011;10808;48.010;11.326;2024-02-23T12:38:50;2.42;;;0.60;;
21297;SDS011;10808;48.010;11.326;2024-02-23T12:41:16;1.30;;;0.70;;
21297;SDS011;10808;48.010;11.326;2024-02-23T12:43:42;1.10;;;0.60;;
21297;SDS011;10808;48.010;11.326;2024-02-23T12:46:08;1.63;;;0.60;;
21297;SDS011;10808;48.010;11.326;2024-02-23T12:48:34;1.33;;;0.85;;
21297;SDS011;10808;48.010;11.326;2024-02-23T12:51:00;1.40;;;0.80;;
21297;SDS011;10808;48.010;11.326;2024-02-23T12:53:31;0.95;;;0.70;;
21297;SDS011;10808;48.010;11.326;2024-02-23T12:56:07;1.10;;;0.70;;
21297;SDS011;10808;48.010;11.326;2024-02-23T12:58:54;1.30;;;0.60;;
21297;SDS011;10808;48.010;11.326;2024-02-23T13:01:20;1.20;;;0.70;;
21297;SDS011;10808;48.010;11.326;2024-02-23T13:03:46;1.60;;;0.60;;
21297;SDS011;10808;48.010;11.326;2024-02-23T13:06:13;1.27;;;0.60;;
21297;SDS011;10808;48.010;11.326;2024-02-23T13:08:39;0.82;;;0.57;;
21297;SDS011;10808;48.010;11.326;2024-02-23T13:11:07;0.60;;;0.50;;
21297;SDS011;10808;48.010;11.326;2024-02-23T13:13:34;1.05;;;0.50;;
21297;SDS011;10808;48.010;11.326;2024-02-23T13:16:00;1.30;;;0.80;;
21297;SDS011;10808;48.010;11.326;2024-02-23T13:18:26;1.00;;;0.70;;
21297;SDS011;10808;48.010;11.326;2024-02-23T13:20:52;1.25;;;0.80;;
21297;SDS011;10808;48.010;11.326;2024-02-23T13:23:18;2.17;;;0.80;;
21297;SDS011;10808;48.010;11.326;2024-02-23T13:25:44;2.63;;;0.70;;
21297;SDS011;10808;48.010;11.326;2024-02-23T13:28:11;0.65;;;0.50;;
21297;SDS011;10808;48.010;11.326;2024-02-23T13:30:37;2.30;;;0.70;;
21297;SDS011;10808;48.010;11.326;2024-02-23T13:33:04;0.80;;;0.50;;
21297;SDS011;10808;48.010;11.326;2024-02-23T13:35:31;0.98;;;0.60;;
21297;SDS011;10808;48.010;11.326;2024-02-23T13:37:57;1.70;;;0.60;;
21297;SDS011;10808;48.010;11.326;2024-02-23T13:40:24;0.93;;;0.50;;
21297;SDS011;10808;48.010;11.326;2024-02-23T13:42:50;0.90;;;0.52;;
21297;SDS011;10808;48.010;11.326;2024-02-23T13:45:18;1.52;;;0.88;;
21297;SDS011;10808;48.010;11.326;2024-02-23T13:47:54;1.33;;;0.60;;
21297;SDS011;10808;48.010;11.326;2024-02-23T13:50:21;2.25;;;0.60;;
21297;SDS011;10808;48.010;11.326;2024-02-23T13:52:48;0.60;;;0.50;;
21297;SDS011;10808;48.010;11.326;2024-02-23T13:55:14;0.70;;;0.60;;
21297;SDS011;10808;48.010;11.326;2024-02-23T13:57:40;1.42;;;0.60;;
21297;SDS011;10808;48.010;11.326;2024-02-23T14:00:06;0.98;;;0.60;;
21297;SDS011;10808;48.010;11.326;2024-02-23T14:02:38;1.70;;;0.40;;
21297;SDS011;10808;48.010;11.326;2024-02-23T14:05:07;1.25;;;0.50;;
21297;SDS011;10808;48.010;11.326;2024-02-23T14:07:34;0.40;;;0.40;;
21297;SDS011;10808;48.010;11.326;2024-02-23T14:10:00;3.20;;;1.95;;
21297;SDS011;10808;48.010;11.326;2024-02-23T14:12:28;1.60;;;1.00;;
21297;SDS011;10808;48.010;11.326;2024-02-23T14:14:54;1.77;;;0.90;;
21297;SDS011;10808;48.010;11.326;2024-02-23T14:17:20;0.50;;;0.50;;
21297;SDS011;10808;48.010;11.326;2024-02-23T14:19:46;1.50;;;0.60;;
21297;SDS011;10808;48.010;11.326;2024-02-23T14:22:12;1.20;;;0.50;;
21297;SDS011;10808;48.010;11.326;2024-02-23T14:24:38;1.35;;;0.30;;
21297;SDS011;10808;48.010;11.326;2024-02-23T14:27:06;0.40;;;0.40;;
21297;SDS011;10808;48.010;11.326;2024-02-23T14:29:32;0.40;;;0.40;;
21297;SDS011;10808;48.010;11.326;2024-02-23T14:32:01;1.20;;;0.43;;